sensor_id;sensor_type;location;lat;lon;timestamp;P1;durP1;ratioP1;P2;durP2;ratioP2
30462;SDS011;17256;43.618;25.336;2023-06-19T00:00:24;12.30;;;11.20;;
30462;SDS011;17256;43.618;25.336;2023-06-19T00:02:52;13.37;;;12.13;;
30462;SDS011;17256;43.618;25.336;2023-06-19T00:05:19;15.83;;;13.27;;
30462;SDS011;17256;43.618;25.336;2023-06-19T00:07:49;13.13;;;11.90;;
30462;SDS011;17256;43.618;25.336;2023-06-19T00:10:15;13.83;;;12.57;;
30462;SDS011;17256;43.618;25.336;2023-06-19T00:12:43;13.83;;;12.47;;
30462;SDS011;17256;43.618;25.336;2023-06-19T00:15:10;14.53;;;13.23;;
30462;SDS011;17256;43.618;25.336;2023-06-19T00:17:39;14.87;;;13.33;;
30462;SDS011;17256;43.618;25.336;2023-06-19T00:20:07;13.10;;;12.00;;
30462;SDS011;17256;43.618;25.336;2023-06-19T00:22:33;14.10;;;12.80;;
30462;SDS011;17256;43.618;25.336;2023-06-19T00:24:59;13.80;;;12.63;;
30462;SDS011;17256;43.618;25.336;2023-06-19T00:27:25;14.07;;;12.87;;
30462;SDS011;17256;43.618;25.336;2023-06-19T00:29:51;14.77;;;13.37;;
30462;SDS011;17256;43.618;25.336;2023-06-19T00:32:18;14.00;;;12.80;;
30462;SDS011;17256;43.618;25.336;2023-06-19T00:34:43;14.53;;;13.13;;
30462;SDS011;17256;43.618;25.336;2023-06-19T00:37:11;13.73;;;12.53;;
30462;SDS011;17256;43.618;25.336;2023-06-19T00:39:38;13.87;;;12.77;;
30462;SDS011;17256;43.618;25.336;2023-06-19T00:42:06;13.67;;;12.57;;
30462;SDS011;17256;43.618;25.336;2023-06-19T00:44:33;15.23;;;12.60;;
30462;SDS011;17256;43.618;25.336;2023-06-19T00:47:00;13.73;;;12.53;;
30462;SDS011;17256;43.618;25.336;2023-06-19T00:49:28;14.40;;;13.20;;
30462;SDS011;17256;43.618;25.336;2023-06-19T00:51:55;14.03;;;12.70;;
30462;SDS011;17256;43.618;25.336;2023-06-19T00:54:21;13.50;;;12.10;;
30462;SDS011;17256;43.618;25.336;2023-06-19T00:56:48;12.97;;;11.93;;
30462;SDS011;17256;43.618;25.336;2023-06-19T00:59:16;13.93;;;12.73;;
30462;SDS011;17256;43.618;25.336;2023-06-19T01:01:45;13.53;;;12.43;;
30462;SDS011;17256;43.618;25.336;2023-06-19T01:04:12;14.63;;;13.13;;
30462;SDS011;17256;43.618;25.336;2023-06-19T01:06:53;14.10;;;12.90;;
30462;SDS011;17256;43.618;25.336;2023-06-19T01:09:23;13.83;;;12.63;;
30462;SDS011;17256;43.618;25.336;2023-06-19T01:12:01;13.37;;;12.27;;
30462;SDS011;17256;43.618;25.336;2023-06-19T01:14:42;13.30;;;12.20;;
30462;SDS011;17256;43.618;25.336;2023-06-19T01:17:15;13.40;;;12.03;;
30462;SDS011;17256;43.618;25.336;2023-06-19T01:19:41;13.30;;;12.10;;
30462;SDS011;17256;43.618;25.336;2023-06-19T01:22:07;13.63;;;12.13;;
30462;SDS011;17256;43.618;25.336;2023-06-19T01:24:34;14.00;;;12.50;;
30462;SDS011;17256;43.618;25.336;2023-06-19T01:27:00;13.23;;;12.23;;
30462;SDS011;17256;43.618;25.336;2023-06-19T01:29:26;12.23;;;11.23;;
30462;SDS011;17256;43.618;25.336;2023-06-19T01:31:59;14.13;;;11.90;;
30462;SDS011;17256;43.618;25.336;2023-06-19T01:34:33;12.97;;;11.67;;
30462;SDS011;17256;43.618;25.336;2023-06-19T01:37:04;13.53;;;12.23;;
30462;SDS011;17256;43.618;25.336;2023-06-19T01:39:36;12.20;;;11.00;;
30462;SDS011;17256;43.618;25.336;2023-06-19T01:42:04;12.57;;;11.30;;
30462;SDS011;17256;43.618;25.336;2023-06-19T01:44:36;12.53;;;11.43;;
30462;SDS011;17256;43.618;25.336;2023-06-19T01:47:11;11.53;;;10.53;;
30462;SDS011;17256;43.618;25.336;2023-06-19T01:49:37;13.10;;;11.73;;
30462;SDS011;17256;43.618;25.336;2023-06-19T01:52:03;11.17;;;10.00;;
30462;SDS011;17256;43.618;25.336;2023-06-19T01:55:02;11.20;;;10.27;;
30462;SDS011;17256;43.618;25.336;2023-06-19T01:57:28;11.30;;;10.20;;
30462;SDS011;17256;43.618;25.336;2023-06-19T01:59:54;11.90;;;10.70;;
30462;SDS011;17256;43.618;25.336;2023-06-19T02:02:21;11.23;;;10.13;;
30462;SDS011;17256;43.618;25.336;2023-06-19T02:04:49;11.73;;;10.60;;
30462;SDS011;17256;43.618;25.336;2023-06-19T02:07:16;11.30;;;10.20;;
30462;SDS011;17256;43.618;25.336;2023-06-19T02:09:48;11.77;;;10.77;;
30462;SDS011;17256;43.618;25.336;2023-06-19T02:12:14;11.63;;;10.63;;
30462;SDS011;17256;43.618;25.336;2023-06-19T02:14:40;11.37;;;10.23;;
30462;SDS011;17256;43.618;25.336;2023-06-19T02:17:07;11.33;;;10.23;;
30462;SDS011;17256;43.618;25.336;2023-06-19T02:19:37;11.20;;;9.97;;
30462;SDS011;17256;43.618;25.336;2023-06-19T02:22:08;12.20;;;10.30;;
30462;SDS011;17256;43.618;25.336;2023-06-19T02:24:36;16.07;;;11.17;;
30462;SDS011;17256;43.618;25.336;2023-06-19T02:27:13;11.50;;;10.40;;
30462;SDS011;17256;43.618;25.336;2023-06-19T02:29:41;11.10;;;10.10;;
30462;SDS011;17256;43.618;25.336;2023-06-19T02:32:07;10.33;;;9.53;;
30462;SDS011;17256;43.618;25.336;2023-06-19T02:34:47;10.83;;;9.90;;
30462;SDS011;17256;43.618;25.336;2023-06-19T02:37:20;11.87;;;10.67;;
30462;SDS011;17256;43.618;25.336;2023-06-19T02:39:55;11.03;;;10.00;;
30462;SDS011;17256;43.618;25.336;2023-06-19T02:42:59;11.10;;;10.07;;
30462;SDS011;17256;43.618;25.336;2023-06-19T02:45:32;10.03;;;9.23;;
30462;SDS011;17256;43.618;25.336;2023-06-19T02:48:01;11.67;;;10.47;;
30462;SDS011;17256;43.618;25.336;2023-06-19T02:50:34;11.20;;;10.30;;
30462;SDS011;17256;43.618;25.336;2023-06-19T02:53:05;11.60;;;10.43;;
30462;SDS011;17256;43.618;25.336;2023-06-19T02:59:18;10.10;;;9.30;;
30462;SDS011;17256;43.618;25.336;2023-06-19T03:02:05;10.13;;;9.23;;
30462;SDS011;17256;43.618;25.336;2023-06-19T03:04:58;10.43;;;9.53;;
30462;SDS011;17256;43.618;25.336;2023-06-19T03:07:32;10.13;;;9.37;;
30462;SDS011;17256;43.618;25.336;2023-06-19T03:10:37;10.17;;;9.13;;
30462;SDS011;17256;43.618;25.336;2023-06-19T03:13:25;9.77;;;8.87;;
30462;SDS011;17256;43.618;25.336;2023-06-19T03:16:10;10.13;;;9.13;;
30462;SDS011;17256;43.618;25.336;2023-06-19T03:19:11;9.50;;;8.70;;
30462;SDS011;17256;43.618;25.336;2023-06-19T03:22:23;15.40;;;8.47;;
30462;SDS011;17256;43.618;25.336;2023-06-19T03:28:39;9.27;;;8.37;;
30462;SDS011;17256;43.618;25.336;2023-06-19T03:31:16;9.93;;;9.07;;
30462;SDS011;17256;43.618;25.336;2023-06-19T03:33:55;10.10;;;9.17;;
30462;SDS011;17256;43.618;25.336;2023-06-19T03:36:25;8.60;;;7.87;;
30462;SDS011;17256;43.618;25.336;2023-06-19T03:42:28;10.47;;;9.43;;
30462;SDS011;17256;43.618;25.336;2023-06-19T03:45:24;11.63;;;10.13;;
30462;SDS011;17256;43.618;25.336;2023-06-19T03:54:48;10.97;;;10.07;;
30462;SDS011;17256;43.618;25.336;2023-06-19T03:57:48;10.60;;;9.60;;
30462;SDS011;17256;43.618;25.336;2023-06-19T04:00:45;11.77;;;9.87;;
30462;SDS011;17256;43.618;25.336;2023-06-19T04:04:53;13.70;;;10.17;;
30462;SDS011;17256;43.618;25.336;2023-06-19T04:11:53;11.80;;;10.63;;
30462;SDS011;17256;43.618;25.336;2023-06-19T04:19:49;11.63;;;9.87;;
30462;SDS011;17256;43.618;25.336;2023-06-19T04:26:35;9.30;;;8.40;;
30462;SDS011;17256;43.618;25.336;2023-06-19T04:34:26;9.63;;;8.00;;
30462;SDS011;17256;43.618;25.336;2023-06-19T04:37:10;9.70;;;8.73;;
30462;SDS011;17256;43.618;25.336;2023-06-19T04:43:59;7.90;;;7.30;;
30462;SDS011;17256;43.618;25.336;2023-06-19T05:24:57;9.43;;;7.93;;
30462;SDS011;17256;43.618;25.336;2023-06-19T05:29:11;8.47;;;7.67;;
30462;SDS011;17256;43.618;25.336;2023-06-19T05:33:11;8.90;;;8.20;;
30462;SDS011;17256;43.618;25.336;2023-06-19T07:19:13;9.67;;;8.60;;
30462;SDS011;17256;43.618;25.336;2023-06-19T07:21:40;10.00;;;7.60;;
30462;SDS011;17256;43.618;25.336;2023-06-19T07:24:25;7.80;;;7.00;;
30462;SDS011;17256;43.618;25.336;2023-06-19T07:26:51;8.60;;;7.80;;
30462;SDS011;17256;43.618;25.336;2023-06-19T07:41:15;9.20;;;8.30;;
30462;SDS011;17256;43.618;25.336;2023-06-19T07:46:44;9.00;;;8.20;;
30462;SDS011;17256;43.618;25.336;2023-06-19T07:49:10;8.90;;;8.10;;
30462;SDS011;17256;43.618;25.336;2023-06-19T07:51:35;9.07;;;8.37;;
30462;SDS011;17256;43.618;25.336;2023-06-19T07:54:01;8.47;;;7.73;;
30462;SDS011;17256;43.618;25.336;2023-06-19T07:56:27;8.57;;;7.90;;
30462;SDS011;17256;43.618;25.336;2023-06-19T07:58:52;9.03;;;8.30;;
30462;SDS011;17256;43.618;25.336;2023-06-19T08:01:18;8.80;;;8.00;;
30462;SDS011;17256;43.618;25.336;2023-06-19T08:03:43;9.73;;;8.87;;
30462;SDS011;17256;43.618;25.336;2023-06-19T08:06:10;9.40;;;8.70;;
30462;SDS011;17256;43.618;25.336;2023-06-19T08:08:36;10.20;;;9.30;;
30462;SDS011;17256;43.618;25.336;2023-06-19T08:11:01;8.63;;;8.03;;
30462;SDS011;17256;43.618;25.336;2023-06-19T08:13:27;9.70;;;8.80;;
30462;SDS011;17256;43.618;25.336;2023-06-19T08:15:53;9.53;;;8.73;;
30462;SDS011;17256;43.618;25.336;2023-06-19T08:18:18;8.70;;;8.00;;
30462;SDS011;17256;43.618;25.336;2023-06-19T08:20:44;8.33;;;7.53;;
30462;SDS011;17256;43.618;25.336;2023-06-19T08:23:09;8.70;;;8.00;;
30462;SDS011;17256;43.618;25.336;2023-06-19T08:25:35;7.97;;;7.27;;
30462;SDS011;17256;43.618;25.336;2023-06-19T08:28:00;8.63;;;7.93;;
30462;SDS011;17256;43.618;25.336;2023-06-19T08:30:26;8.10;;;7.30;;
30462;SDS011;17256;43.618;25.336;2023-06-19T08:32:51;8.67;;;7.90;;
30462;SDS011;17256;43.618;25.336;2023-06-19T08:35:17;6.77;;;6.23;;
30462;SDS011;17256;43.618;25.336;2023-06-19T08:37:43;7.30;;;6.70;;
30462;SDS011;17256;43.618;25.336;2023-06-19T08:40:09;6.83;;;6.30;;
30462;SDS011;17256;43.618;25.336;2023-06-19T08:42:36;7.27;;;6.67;;
30462;SDS011;17256;43.618;25.336;2023-06-19T08:45:02;7.60;;;6.90;;
30462;SDS011;17256;43.618;25.336;2023-06-19T08:47:34;10.57;;;6.63;;
30462;SDS011;17256;43.618;25.336;2023-06-19T08:49:59;7.00;;;6.50;;
30462;SDS011;17256;43.618;25.336;2023-06-19T08:52:25;7.07;;;6.47;;
30462;SDS011;17256;43.618;25.336;2023-06-19T08:54:51;8.63;;;7.27;;
30462;SDS011;17256;43.618;25.336;2023-06-19T08:57:17;7.40;;;6.80;;
30462;SDS011;17256;43.618;25.336;2023-06-19T08:59:49;7.20;;;6.60;;
30462;SDS011;17256;43.618;25.336;2023-06-19T09:02:15;7.20;;;6.70;;
30462;SDS011;17256;43.618;25.336;2023-06-19T09:04:42;8.93;;;6.83;;
30462;SDS011;17256;43.618;25.336;2023-06-19T09:07:08;7.13;;;6.47;;
30462;SDS011;17256;43.618;25.336;2023-06-19T09:09:46;7.13;;;6.53;;
30462;SDS011;17256;43.618;25.336;2023-06-19T09:12:14;7.30;;;6.03;;
30462;SDS011;17256;43.618;25.336;2023-06-19T09:14:44;6.20;;;5.70;;
30462;SDS011;17256;43.618;25.336;2023-06-19T09:17:12;7.60;;;6.90;;
30462;SDS011;17256;43.618;25.336;2023-06-19T09:19:46;6.43;;;5.83;;
30462;SDS011;17256;43.618;25.336;2023-06-19T09:22:13;7.13;;;6.43;;
30462;SDS011;17256;43.618;25.336;2023-06-19T09:24:40;6.57;;;6.00;;
30462;SDS011;17256;43.618;25.336;2023-06-19T09:30:34;6.93;;;6.33;;
30462;SDS011;17256;43.618;25.336;2023-06-19T09:33:20;6.73;;;5.80;;
30462;SDS011;17256;43.618;25.336;2023-06-19T09:35:48;7.20;;;5.73;;
30462;SDS011;17256;43.618;25.336;2023-06-19T09:38:16;5.73;;;5.03;;
30462;SDS011;17256;43.618;25.336;2023-06-19T09:40:47;5.47;;;4.97;;
30462;SDS011;17256;43.618;25.336;2023-06-19T09:43:15;5.33;;;5.03;;
30462;SDS011;17256;43.618;25.336;2023-06-19T09:45:48;5.83;;;5.27;;
30462;SDS011;17256;43.618;25.336;2023-06-19T09:48:22;6.43;;;5.70;;
30462;SDS011;17256;43.618;25.336;2023-06-19T09:50:57;6.23;;;5.70;;
30462;SDS011;17256;43.618;25.336;2023-06-19T09:53:26;6.83;;;5.07;;
30462;SDS011;17256;43.618;25.336;2023-06-19T09:55:52;5.70;;;5.20;;
30462;SDS011;17256;43.618;25.336;2023-06-19T09:58:21;5.50;;;5.10;;
30462;SDS011;17256;43.618;25.336;2023-06-19T10:00:48;5.33;;;4.93;;
30462;SDS011;17256;43.618;25.336;2023-06-19T10:03:15;5.50;;;5.10;;
30462;SDS011;17256;43.618;25.336;2023-06-19T10:05:42;11.20;;;4.67;;
30462;SDS011;17256;43.618;25.336;2023-06-19T10:08:08;4.83;;;3.10;;
30462;SDS011;17256;43.618;25.336;2023-06-19T10:10:34;4.30;;;3.90;;
30462;SDS011;17256;43.618;25.336;2023-06-19T10:13:13;3.80;;;3.50;;
30462;SDS011;17256;43.618;25.336;2023-06-19T10:15:43;3.23;;;3.00;;
30462;SDS011;17256;43.618;25.336;2023-06-19T10:18:16;3.90;;;3.60;;
30462;SDS011;17256;43.618;25.336;2023-06-19T10:20:43;4.67;;;3.23;;
30462;SDS011;17256;43.618;25.336;2023-06-19T10:25:48;4.30;;;3.87;;
30462;SDS011;17256;43.618;25.336;2023-06-19T10:28:29;3.93;;;3.27;;
30462;SDS011;17256;43.618;25.336;2023-06-19T10:31:00;3.70;;;3.27;;
30462;SDS011;17256;43.618;25.336;2023-06-19T10:33:29;4.03;;;3.73;;
30462;SDS011;17256;43.618;25.336;2023-06-19T10:35:57;4.87;;;4.33;;
30462;SDS011;17256;43.618;25.336;2023-06-19T10:38:28;4.83;;;4.43;;
30462;SDS011;17256;43.618;25.336;2023-06-19T10:40:54;5.30;;;4.80;;
30462;SDS011;17256;43.618;25.336;2023-06-19T10:43:21;5.40;;;4.77;;
30462;SDS011;17256;43.618;25.336;2023-06-19T10:45:50;6.80;;;4.97;;
30462;SDS011;17256;43.618;25.336;2023-06-19T10:48:20;4.63;;;4.23;;
30462;SDS011;17256;43.618;25.336;2023-06-19T10:50:47;5.53;;;4.93;;
30462;SDS011;17256;43.618;25.336;2023-06-19T10:53:26;4.73;;;4.33;;
30462;SDS011;17256;43.618;25.336;2023-06-19T10:55:56;4.40;;;4.10;;
30462;SDS011;17256;43.618;25.336;2023-06-19T10:58:24;4.80;;;4.47;;
30462;SDS011;17256;43.618;25.336;2023-06-19T11:00:50;5.83;;;5.23;;
30462;SDS011;17256;43.618;25.336;2023-06-19T11:03:16;4.67;;;4.27;;
30462;SDS011;17256;43.618;25.336;2023-06-19T11:05:45;5.73;;;5.23;;
30462;SDS011;17256;43.618;25.336;2023-06-19T11:08:16;5.10;;;4.70;;
30462;SDS011;17256;43.618;25.336;2023-06-19T11:10:46;6.20;;;5.20;;
30462;SDS011;17256;43.618;25.336;2023-06-19T11:13:15;5.10;;;4.33;;
30462;SDS011;17256;43.618;25.336;2023-06-19T11:15:42;6.50;;;5.13;;
30462;SDS011;17256;43.618;25.336;2023-06-19T11:18:08;5.20;;;4.80;;
30462;SDS011;17256;43.618;25.336;2023-06-19T11:20:47;5.33;;;4.60;;
30462;SDS011;17256;43.618;25.336;2023-06-19T11:23:13;4.83;;;4.43;;
30462;SDS011;17256;43.618;25.336;2023-06-19T11:25:40;5.93;;;5.33;;
30462;SDS011;17256;43.618;25.336;2023-06-19T11:28:12;6.73;;;4.47;;
30462;SDS011;17256;43.618;25.336;2023-06-19T11:30:39;6.00;;;5.50;;
30462;SDS011;17256;43.618;25.336;2023-06-19T11:33:41;5.20;;;4.70;;
30462;SDS011;17256;43.618;25.336;2023-06-19T11:36:00;4.77;;;4.47;;
30462;SDS011;17256;43.618;25.336;2023-06-19T11:38:28;4.43;;;4.03;;
30462;SDS011;17256;43.618;25.336;2023-06-19T11:40:55;4.37;;;4.07;;
30462;SDS011;17256;43.618;25.336;2023-06-19T11:43:29;5.30;;;4.30;;
30462;SDS011;17256;43.618;25.336;2023-06-19T11:46:03;4.47;;;3.90;;
30462;SDS011;17256;43.618;25.336;2023-06-19T11:49:25;7.73;;;4.70;;
30462;SDS011;17256;43.618;25.336;2023-06-19T11:51:50;4.07;;;3.70;;
30462;SDS011;17256;43.618;25.336;2023-06-19T11:54:16;10.47;;;4.20;;
30462;SDS011;17256;43.618;25.336;2023-06-19T12:09:12;3.97;;;3.17;;
30462;SDS011;17256;43.618;25.336;2023-06-19T12:11:37;3.27;;;2.97;;
30462;SDS011;17256;43.618;25.336;2023-06-19T12:14:03;3.53;;;3.23;;
30462;SDS011;17256;43.618;25.336;2023-06-19T12:28:34;5.20;;;4.83;;
30462;SDS011;17256;43.618;25.336;2023-06-19T12:50:41;4.57;;;3.13;;
30462;SDS011;17256;43.618;25.336;2023-06-19T12:53:27;8.50;;;3.83;;
30462;SDS011;17256;43.618;25.336;2023-06-19T12:57:18;3.60;;;3.30;;
30462;SDS011;17256;43.618;25.336;2023-06-19T13:00:59;5.03;;;3.53;;
30462;SDS011;17256;43.618;25.336;2023-06-19T13:05:06;4.00;;;3.30;;
30462;SDS011;17256;43.618;25.336;2023-06-19T13:30:53;4.00;;;3.70;;
30462;SDS011;17256;43.618;25.336;2023-06-19T13:33:19;3.60;;;3.30;;
30462;SDS011;17256;43.618;25.336;2023-06-19T13:35:45;3.60;;;3.40;;
30462;SDS011;17256;43.618;25.336;2023-06-19T13:38:11;3.80;;;3.40;;
30462;SDS011;17256;43.618;25.336;2023-06-19T13:40:36;4.10;;;3.80;;
30462;SDS011;17256;43.618;25.336;2023-06-19T13:43:02;4.27;;;3.87;;
30462;SDS011;17256;43.618;25.336;2023-06-19T13:45:28;5.07;;;4.67;;
30462;SDS011;17256;43.618;25.336;2023-06-19T13:47:56;4.97;;;4.57;;
30462;SDS011;17256;43.618;25.336;2023-06-19T13:50:23;4.37;;;4.07;;
30462;SDS011;17256;43.618;25.336;2023-06-19T13:52:49;5.20;;;4.70;;
30462;SDS011;17256;43.618;25.336;2023-06-19T13:55:14;4.33;;;4.03;;
30462;SDS011;17256;43.618;25.336;2023-06-19T13:57:41;5.47;;;5.07;;
30462;SDS011;17256;43.618;25.336;2023-06-19T14:00:07;4.80;;;4.40;;
30462;SDS011;17256;43.618;25.336;2023-06-19T14:02:38;4.50;;;4.10;;
30462;SDS011;17256;43.618;25.336;2023-06-19T14:05:07;5.20;;;4.70;;
30462;SDS011;17256;43.618;25.336;2023-06-19T14:07:34;3.83;;;3.53;;
30462;SDS011;17256;43.618;25.336;2023-06-19T14:10:01;5.07;;;3.87;;
30462;SDS011;17256;43.618;25.336;2023-06-19T14:12:28;4.60;;;4.20;;
30462;SDS011;17256;43.618;25.336;2023-06-19T14:14:54;4.30;;;4.00;;
30462;SDS011;17256;43.618;25.336;2023-06-19T14:17:20;6.17;;;4.57;;
30462;SDS011;17256;43.618;25.336;2023-06-19T14:19:45;3.83;;;3.63;;
30462;SDS011;17256;43.618;25.336;2023-06-19T14:22:11;4.43;;;4.03;;
30462;SDS011;17256;43.618;25.336;2023-06-19T14:24:37;4.10;;;3.80;;
30462;SDS011;17256;43.618;25.336;2023-06-19T14:27:02;4.73;;;4.33;;
30462;SDS011;17256;43.618;25.336;2023-06-19T14:29:28;4.10;;;3.80;;
30462;SDS011;17256;43.618;25.336;2023-06-19T14:31:54;4.00;;;3.70;;
30462;SDS011;17256;43.618;25.336;2023-06-19T14:34:19;4.67;;;4.20;;
30462;SDS011;17256;43.618;25.336;2023-06-19T14:36:45;5.10;;;4.63;;
30462;SDS011;17256;43.618;25.336;2023-06-19T14:39:11;6.60;;;3.97;;
30462;SDS011;17256;43.618;25.336;2023-06-19T14:41:37;4.80;;;4.50;;
30462;SDS011;17256;43.618;25.336;2023-06-19T14:44:03;5.23;;;4.73;;
30462;SDS011;17256;43.618;25.336;2023-06-19T14:46:29;5.50;;;4.20;;
30462;SDS011;17256;43.618;25.336;2023-06-19T14:48:55;5.03;;;4.40;;
30462;SDS011;17256;43.618;25.336;2023-06-19T14:51:24;31.10;;;28.20;;
30462;SDS011;17256;43.618;25.336;2023-06-19T14:53:50;16.70;;;14.97;;
30462;SDS011;17256;43.618;25.336;2023-06-19T14:56:15;7.03;;;6.53;;
30462;SDS011;17256;43.618;25.336;2023-06-19T14:58:41;6.17;;;5.63;;
30462;SDS011;17256;43.618;25.336;2023-06-19T15:01:08;5.27;;;4.87;;
30462;SDS011;17256;43.618;25.336;2023-06-19T15:03:34;5.30;;;4.83;;
30462;SDS011;17256;43.618;25.336;2023-06-19T15:05:59;14.27;;;5.60;;
30462;SDS011;17256;43.618;25.336;2023-06-19T15:08:25;5.67;;;5.23;;
30462;SDS011;17256;43.618;25.336;2023-06-19T15:10:51;10.17;;;9.20;;
30462;SDS011;17256;43.618;25.336;2023-06-19T15:13:16;9.93;;;6.80;;
30462;SDS011;17256;43.618;25.336;2023-06-19T15:15:43;4.80;;;4.30;;
30462;SDS011;17256;43.618;25.336;2023-06-19T15:18:09;6.13;;;5.63;;
30462;SDS011;17256;43.618;25.336;2023-06-19T15:20:35;6.23;;;4.73;;
30462;SDS011;17256;43.618;25.336;2023-06-19T15:23:04;7.37;;;5.67;;
30462;SDS011;17256;43.618;25.336;2023-06-19T15:25:30;6.53;;;5.80;;
30462;SDS011;17256;43.618;25.336;2023-06-19T15:27:56;6.17;;;5.67;;
30462;SDS011;17256;43.618;25.336;2023-06-19T15:30:22;5.60;;;4.93;;
30462;SDS011;17256;43.618;25.336;2023-06-19T15:32:48;5.87;;;5.37;;
30462;SDS011;17256;43.618;25.336;2023-06-19T15:35:13;6.70;;;6.10;;
30462;SDS011;17256;43.618;25.336;2023-06-19T15:37:39;6.47;;;5.90;;
30462;SDS011;17256;43.618;25.336;2023-06-19T15:40:04;5.50;;;5.07;;
30462;SDS011;17256;43.618;25.336;2023-06-19T15:42:31;6.00;;;5.60;;
30462;SDS011;17256;43.618;25.336;2023-06-19T15:44:56;6.03;;;5.63;;
30462;SDS011;17256;43.618;25.336;2023-06-19T15:47:22;6.27;;;5.73;;
30462;SDS011;17256;43.618;25.336;2023-06-19T15:49:47;5.90;;;5.40;;
30462;SDS011;17256;43.618;25.336;2023-06-19T15:52:13;8.37;;;6.37;;
30462;SDS011;17256;43.618;25.336;2023-06-19T15:54:38;6.73;;;6.13;;
30462;SDS011;17256;43.618;25.336;2023-06-19T15:57:04;6.50;;;5.97;;
30462;SDS011;17256;43.618;25.336;2023-06-19T15:59:31;7.00;;;4.43;;
30462;SDS011;17256;43.618;25.336;2023-06-19T16:23:34;3.60;;;3.20;;
30462;SDS011;17256;43.618;25.336;2023-06-19T16:26:31;4.10;;;3.73;;
30462;SDS011;17256;43.618;25.336;2023-06-19T16:29:21;4.10;;;3.70;;
30462;SDS011;17256;43.618;25.336;2023-06-19T16:32:40;3.80;;;3.10;;
30462;SDS011;17256;43.618;25.336;2023-06-19T16:35:18;3.60;;;3.30;;
30462;SDS011;17256;43.618;25.336;2023-06-19T16:40:47;4.30;;;3.90;;
30462;SDS011;17256;43.618;25.336;2023-06-19T16:48:23;3.97;;;3.20;;
30462;SDS011;17256;43.618;25.336;2023-06-19T16:51:11;4.33;;;4.00;;
30462;SDS011;17256;43.618;25.336;2023-06-19T16:54:33;3.43;;;3.13;;
30462;SDS011;17256;43.618;25.336;2023-06-19T17:09:12;4.00;;;3.60;;
30462;SDS011;17256;43.618;25.336;2023-06-19T17:23:54;3.87;;;3.47;;
30462;SDS011;17256;43.618;25.336;2023-06-19T17:34:39;3.67;;;3.10;;
30462;SDS011;17256;43.618;25.336;2023-06-19T17:49:21;2.90;;;2.70;;
30462;SDS011;17256;43.618;25.336;2023-06-19T17:51:49;3.67;;;3.37;;
30462;SDS011;17256;43.618;25.336;2023-06-19T17:57:46;3.33;;;2.87;;
30462;SDS011;17256;43.618;25.336;2023-06-19T18:00:13;3.67;;;3.33;;
30462;SDS011;17256;43.618;25.336;2023-06-19T18:02:41;3.10;;;2.90;;
30462;SDS011;17256;43.618;25.336;2023-06-19T18:05:08;3.20;;;2.90;;
30462;SDS011;17256;43.618;25.336;2023-06-19T18:07:36;3.43;;;3.13;;
30462;SDS011;17256;43.618;25.336;2023-06-19T18:10:07;3.03;;;2.80;;
30462;SDS011;17256;43.618;25.336;2023-06-19T18:12:35;3.93;;;2.50;;
30462;SDS011;17256;43.618;25.336;2023-06-19T18:15:04;3.73;;;2.80;;
30462;SDS011;17256;43.618;25.336;2023-06-19T18:17:32;3.50;;;3.20;;
30462;SDS011;17256;43.618;25.336;2023-06-19T18:20:10;3.70;;;3.10;;
30462;SDS011;17256;43.618;25.336;2023-06-19T18:34:01;3.97;;;3.30;;
30462;SDS011;17256;43.618;25.336;2023-06-19T18:39:53;3.40;;;3.20;;
30462;SDS011;17256;43.618;25.336;2023-06-19T18:42:21;4.00;;;3.60;;
30462;SDS011;17256;43.618;25.336;2023-06-19T18:49:27;3.90;;;3.50;;
30462;SDS011;17256;43.618;25.336;2023-06-19T18:53:10;3.93;;;3.60;;
30462;SDS011;17256;43.618;25.336;2023-06-19T19:41:08;5.03;;;4.47;;
